aviador You're here:

KMAW Decoded Metar

in
Report Time2018-06-24 20:15:00
UTC Time2018-06-24 20:16:36
Flight Rules vfr VFR
Wind110° at 03 kt
W.Decomp.*RWY 14: 2.6 kt HW 1.5 kt LCW
RWY 18: 1.0 kt HW 2.8 kt LCW
W.Rank110° ranks 35
Current wind is below 110° avg. (4.6)
Visibility9999 m
Phenomena:Light Drizzle
Clouds:N/A
Expected CloudBase > 1,600 ft AGL from Temp-Dew spread
CeilingNone
Temp27°C
Dew Point23°C (79% RH)
Heat Index29.6°C
QNH1014 hPa
Raw Report
KMAW 242015Z AUTO 11003KT 10SM -DZ CLR 27/23 A2993 RMK AO2=

Extra information for KMAW:More info

Social comments